createdAt,value
2022-09-23T00:00:43.889Z,71.31
2022-09-23T00:03:17.799Z,71.77
2022-09-23T00:06:00.194Z,71.50
2022-09-23T00:08:33.153Z,72.38
2022-09-23T00:11:10.995Z,72.93
2022-09-23T00:13:46.243Z,72.43
2022-09-23T00:16:23.182Z,73.05
2022-09-23T00:18:55.783Z,68.16
2022-09-23T00:21:28.366Z,66.80
2022-09-23T00:24:00.895Z,66.75
2022-09-23T00:26:33.339Z,66.53
2022-09-23T00:29:06.092Z,66.47
2022-09-23T00:31:38.582Z,66.95
2022-09-23T00:34:13.685Z,66.41
2022-09-23T00:36:46.197Z,67.29
2022-09-23T00:39:18.837Z,67.07
2022-09-23T00:41:51.671Z,67.59
2022-09-23T00:44:48.130Z,67.13
2022-09-23T00:47:35.223Z,67.01
2022-09-23T00:50:29.379Z,66.94
2022-09-23T00:53:05.102Z,67.32
2022-09-23T00:55:40.924Z,66.87
2022-09-23T00:58:17.462Z,66.84
2022-09-23T01:00:51.010Z,67.04
2022-09-23T01:03:24.399Z,66.69
2022-09-23T01:05:57.707Z,67.06
2022-09-23T01:08:30.725Z,66.39
2022-09-23T01:11:17.299Z,66.75
2022-09-23T01:14:14.514Z,66.32
2022-09-23T01:17:00.715Z,66.59
2022-09-23T01:19:39.088Z,66.28
2022-09-23T01:22:30.041Z,66.34
2022-09-23T01:25:33.244Z,66.29
2022-09-23T01:28:30.739Z,66.09
2022-09-23T01:31:41.129Z,66.18
2022-09-23T01:34:25.793Z,66.26
2022-09-23T01:37:36.828Z,66.49
2022-09-23T01:40:31.196Z,65.93
2022-09-23T01:43:26.146Z,65.65
2022-09-23T01:46:02.058Z,65.47
2022-09-23T01:48:44.600Z,66.02
2022-09-23T01:51:30.113Z,65.51
2022-09-23T01:54:08.369Z,66.05
2022-09-23T01:56:53.964Z,65.26
2022-09-23T01:59:38.568Z,65.43
2022-09-23T02:02:23.593Z,65.51
2022-09-23T02:05:12.388Z,65.60
2022-09-23T02:08:04.803Z,65.28
2022-09-23T02:10:43.676Z,66.75
2022-09-23T02:13:25.783Z,65.50
2022-09-23T02:16:03.744Z,65.48
2022-09-23T02:18:53.069Z,65.12
2022-09-23T02:21:34.998Z,65.00
2022-09-23T02:24:17.237Z,65.30
2022-09-23T02:27:19.992Z,65.32
2022-09-23T02:30:14.927Z,64.63
2022-09-23T02:33:09.427Z,65.36
2022-09-23T02:35:53.245Z,65.02
2022-09-23T02:38:41.557Z,64.58
2022-09-23T02:41:13.915Z,64.86
2022-09-23T02:43:52.951Z,64.35
2022-09-23T02:46:25.724Z,64.12
2022-09-23T02:49:02.450Z,64.36
2022-09-23T02:51:39.667Z,63.92
2022-09-23T02:54:16.501Z,64.09
2022-09-23T02:56:51.919Z,64.30
2022-09-23T02:59:25.884Z,64.02
2022-09-23T03:02:07.362Z,63.92
2022-09-23T03:04:52.276Z,63.88
2022-09-23T03:07:43.255Z,63.93
2022-09-23T03:10:43.509Z,63.52
2022-09-23T03:13:31.415Z,63.49
2022-09-23T03:16:10.998Z,63.40
2022-09-23T03:18:57.792Z,63.49
2022-09-23T03:21:48.535Z,63.48
2022-09-23T03:24:25.327Z,63.41
2022-09-23T03:27:01.804Z,63.33
2022-09-23T03:29:38.856Z,63.42
2022-09-23T03:32:11.373Z,63.31
2022-09-23T03:34:46.198Z,63.16
2022-09-23T03:37:32.861Z,63.02
2022-09-23T03:40:26.007Z,63.21
2022-09-23T03:43:02.776Z,63.15
2022-09-23T03:45:37.349Z,63.11
2022-09-23T03:48:10.055Z,62.72
2022-09-23T03:50:42.834Z,63.32
2022-09-23T03:53:16.570Z,63.10
2022-09-23T03:55:49.506Z,62.96
2022-09-23T03:58:22.166Z,62.64
2022-09-23T04:00:56.279Z,62.58
2022-09-23T04:03:29.672Z,62.73
2022-09-23T04:06:02.452Z,62.70
2022-09-23T04:08:35.016Z,62.93
2022-09-23T04:11:07.590Z,62.64
2022-09-23T04:13:40.093Z,62.44
2022-09-23T04:16:12.553Z,62.49
2022-09-23T04:18:44.938Z,62.63
2022-09-23T04:21:17.536Z,62.43
2022-09-23T04:23:50.047Z,62.43
2022-09-23T04:26:22.490Z,62.11
2022-09-23T04:28:56.679Z,62.43
2022-09-23T04:31:30.270Z,62.37
2022-09-23T04:34:03.069Z,62.41
2022-09-23T04:36:35.572Z,62.04
2022-09-23T04:39:08.216Z,62.24
2022-09-23T04:41:41.047Z,62.43
2022-09-23T04:44:17.249Z,61.99
2022-09-23T04:46:50.776Z,61.72
2022-09-23T04:49:23.482Z,62.60
2022-09-23T04:51:56.042Z,62.24
2022-09-23T04:54:29.419Z,61.94
2022-09-23T04:57:01.846Z,62.00
2022-09-23T04:59:34.256Z,61.62
2022-09-23T05:02:06.861Z,61.92
2022-09-23T05:04:39.636Z,61.44
2022-09-23T05:07:13.233Z,61.42
2022-09-23T05:09:45.690Z,61.38
2022-09-23T05:12:18.224Z,61.23
2022-09-23T05:14:50.979Z,61.57
2022-09-23T05:17:23.543Z,61.41
2022-09-23T05:19:56.061Z,61.29
2022-09-23T05:22:28.493Z,61.13
2022-09-23T05:25:03.055Z,61.34
2022-09-23T05:27:35.528Z,61.32
2022-09-23T05:30:08.618Z,61.10
2022-09-23T05:32:41.512Z,60.97
2022-09-23T05:35:14.114Z,60.59
2022-09-23T05:37:46.675Z,60.77
2022-09-23T05:40:19.212Z,60.77
2022-09-23T05:42:52.915Z,60.70
2022-09-23T05:45:26.969Z,60.67
2022-09-23T05:48:00.403Z,60.37
2022-09-23T05:50:32.987Z,60.61
2022-09-23T05:53:05.783Z,60.45
2022-09-23T05:55:38.246Z,60.32
2022-09-23T05:58:10.695Z,60.37
2022-09-23T06:00:44.826Z,60.39
2022-09-23T06:03:22.061Z,60.38
2022-09-23T06:05:58.387Z,60.05
2022-09-23T06:08:31.103Z,60.22
2022-09-23T06:11:09.288Z,59.98
2022-09-23T06:13:42.636Z,60.25
2022-09-23T06:16:17.311Z,60.03
2022-09-23T06:18:49.698Z,59.94
2022-09-23T06:21:22.778Z,60.02
2022-09-23T06:24:02.076Z,59.95
2022-09-23T06:26:39.284Z,59.98
2022-09-23T06:29:13.772Z,60.20
2022-09-23T06:31:46.467Z,59.93
2022-09-23T06:34:19.344Z,59.88
2022-09-23T06:36:53.256Z,60.07
2022-09-23T06:39:25.679Z,59.76
2022-09-23T06:41:58.080Z,59.53
2022-09-23T06:44:32.453Z,59.52
2022-09-23T06:47:04.940Z,59.63
2022-09-23T06:49:38.424Z,59.73
2022-09-23T06:52:11.344Z,59.45
2022-09-23T06:54:43.773Z,59.55
2022-09-23T06:57:16.744Z,59.41
2022-09-23T06:59:49.289Z,59.46
2022-09-23T07:02:21.989Z,59.32
2022-09-23T07:04:57.786Z,59.43
2022-09-23T07:07:33.080Z,59.26
2022-09-23T07:10:09.317Z,59.31
2022-09-23T07:12:42.047Z,59.23
2022-09-23T07:15:14.542Z,59.08
2022-09-23T07:17:46.919Z,59.12
2022-09-23T07:20:20.326Z,59.03
2022-09-23T07:22:53.727Z,58.76
2022-09-23T07:25:26.283Z,59.05
2022-09-23T07:27:58.777Z,58.82
2022-09-23T07:30:31.288Z,58.75
2022-09-23T07:33:08.500Z,58.56
2022-09-23T07:35:49.526Z,58.10
2022-09-23T07:38:21.966Z,58.59
2022-09-23T07:40:54.495Z,58.56
2022-09-23T07:43:28.735Z,58.49
2022-09-23T07:46:04.656Z,58.40
2022-09-23T07:48:39.119Z,58.09
2022-09-23T07:51:14.782Z,58.55
2022-09-23T07:53:50.590Z,58.33
2022-09-23T07:56:27.124Z,58.39
2022-09-23T07:59:03.273Z,58.30
2022-09-23T08:01:43.324Z,57.97
2022-09-23T08:04:19.350Z,57.88
2022-09-23T08:06:55.597Z,57.69
2022-09-23T08:09:34.635Z,57.60
2022-09-23T08:12:09.790Z,57.54
2022-09-23T08:14:45.587Z,57.58
2022-09-23T08:17:18.089Z,57.81
2022-09-23T08:19:50.822Z,57.56
2022-09-23T08:22:23.779Z,57.94
2022-09-23T08:24:56.829Z,57.47
2022-09-23T08:27:30.822Z,57.58
2022-09-23T08:30:03.199Z,57.49
2022-09-23T08:32:35.799Z,57.08
2022-09-23T08:35:08.881Z,57.23
2022-09-23T08:37:41.870Z,57.23
2022-09-23T08:40:14.555Z,57.27
2022-09-23T08:42:48.307Z,56.89
2022-09-23T08:45:27.813Z,57.16
2022-09-23T08:48:12.862Z,56.62
2022-09-23T08:50:57.706Z,56.89
2022-09-23T08:53:37.071Z,56.82
2022-09-23T08:56:18.094Z,56.66
2022-09-23T08:59:35.470Z,56.37
2022-09-23T09:02:16.145Z,56.71
2022-09-23T09:04:55.983Z,56.51
2022-09-23T09:07:38.152Z,56.37
2022-09-23T09:10:28.287Z,56.61
2022-09-23T09:13:10.882Z,56.82
2022-09-23T09:16:48.321Z,56.89
2022-09-23T09:19:27.520Z,56.81
2022-09-23T09:22:00.088Z,56.87
2022-09-23T09:24:37.052Z,56.92
2022-09-23T09:27:16.516Z,57.14
2022-09-23T09:29:56.083Z,57.03
2022-09-23T09:32:31.053Z,58.46
2022-09-23T09:35:11.471Z,60.14
2022-09-23T09:37:48.759Z,61.05
2022-09-23T09:40:22.081Z,61.71
2022-09-23T09:42:54.794Z,61.96
2022-09-23T09:45:58.091Z,62.47
2022-09-23T09:48:41.175Z,62.93
2022-09-23T09:51:27.605Z,63.22
2022-09-23T09:54:26.120Z,63.77
2022-09-23T09:56:58.925Z,63.14
2022-09-23T09:59:31.843Z,63.74
2022-09-23T10:02:27.464Z,63.68
2022-09-23T10:05:07.471Z,63.91
2022-09-23T10:07:39.937Z,64.00
2022-09-23T10:10:33.854Z,64.32
2022-09-23T10:13:17.731Z,64.59
2022-09-23T10:15:51.370Z,64.92
2022-09-23T10:18:38.916Z,64.76
2022-09-23T10:21:16.958Z,65.23
2022-09-23T10:23:53.974Z,65.43
2022-09-23T10:26:56.549Z,65.64
2022-09-23T10:29:35.379Z,66.05
2022-09-23T10:32:27.066Z,66.41
2022-09-23T10:35:11.073Z,66.35
2022-09-23T10:37:43.579Z,66.44
2022-09-23T10:40:49.537Z,66.56
2022-09-23T10:43:45.775Z,67.13
2022-09-23T10:46:40.373Z,67.70
2022-09-23T10:49:13.775Z,67.87
2022-09-23T10:52:10.405Z,68.87
2022-09-23T10:55:01.033Z,69.60
2022-09-23T10:57:48.612Z,70.14
2022-09-23T11:00:48.296Z,70.42
2022-09-23T11:03:45.273Z,70.50
2022-09-23T11:06:26.831Z,71.24
2022-09-23T11:09:16.818Z,71.29
2022-09-23T11:12:25.679Z,71.58
2022-09-23T11:15:18.118Z,71.98
2022-09-23T11:17:50.838Z,71.76
2022-09-23T11:20:49.785Z,71.60
2022-09-23T11:24:00.418Z,71.79
2022-09-23T11:26:33.502Z,70.02
2022-09-23T11:29:34.044Z,69.77
2022-09-23T11:32:15.904Z,68.39
2022-09-23T11:35:16.794Z,69.12
2022-09-23T11:37:55.377Z,68.31
2022-09-23T11:40:42.360Z,68.61
2022-09-23T11:43:30.683Z,68.29
2022-09-23T11:46:21.328Z,68.23
2022-09-23T11:49:17.375Z,68.55
2022-09-23T11:52:07.613Z,68.14
2022-09-23T11:55:01.227Z,68.54
2022-09-23T11:58:07.128Z,68.25
2022-09-23T12:01:09.206Z,70.11
2022-09-23T12:03:56.869Z,71.31
2022-09-23T12:06:40.371Z,72.05
2022-09-23T12:09:47.063Z,72.61
2022-09-23T12:12:17.360Z,73.16
2022-09-23T12:15:17.565Z,73.01
2022-09-23T12:44:45.979Z,74.90
2022-09-23T12:47:40.224Z,75.21
2022-09-23T12:50:54.632Z,75.02
2022-09-23T12:53:36.636Z,74.99
2022-09-23T12:56:41.481Z,75.42
2022-09-23T12:59:24.041Z,74.67
2022-09-23T13:01:58.031Z,75.00
2022-09-23T13:04:54.466Z,75.91
2022-09-23T13:07:33.693Z,75.98
2022-09-23T13:10:26.860Z,76.45
2022-09-23T13:13:01.900Z,75.72
2022-09-23T13:15:39.006Z,76.20
2022-09-23T13:18:23.904Z,76.45
2022-09-23T13:20:58.480Z,76.41
2022-09-23T13:23:36.516Z,76.44
2022-09-23T13:26:14.767Z,74.97
2022-09-23T13:29:00.587Z,73.37
2022-09-23T13:31:33.274Z,74.71
2022-09-23T13:34:10.158Z,72.20
2022-09-23T13:36:48.430Z,69.93
2022-09-23T13:39:32.609Z,68.51
2022-09-23T13:42:07.030Z,67.15
2022-09-23T13:44:43.108Z,66.18
2022-09-23T13:47:17.420Z,64.94
2022-09-23T13:49:51.566Z,63.67
2022-09-23T13:52:34.017Z,62.88
2022-09-23T13:55:25.350Z,63.35
2022-09-23T13:58:15.820Z,62.34
2022-09-23T14:00:49.582Z,62.00
2022-09-23T14:03:36.848Z,60.40
2022-09-23T14:06:18.747Z,59.60
2022-09-23T14:08:52.876Z,59.74
2022-09-23T14:11:32.934Z,57.94
2022-09-23T14:14:11.126Z,57.65
2022-09-23T14:16:49.361Z,56.79
2022-09-23T14:19:25.970Z,55.96
2022-09-23T14:21:59.367Z,55.29
2022-09-23T14:24:32.242Z,54.55
2022-09-23T14:27:18.626Z,53.99
2022-09-23T14:29:52.633Z,53.92
2022-09-23T14:32:30.172Z,53.45
2022-09-23T14:35:05.895Z,52.67
2022-09-23T14:37:57.173Z,52.37
2022-09-23T14:41:17.147Z,52.75
2022-09-23T14:44:01.640Z,54.96
2022-09-23T14:46:37.632Z,52.68
2022-09-23T14:49:13.977Z,52.20
2022-09-23T14:51:57.901Z,51.47
2022-09-23T14:54:36.411Z,51.46
2022-09-23T14:57:33.500Z,50.97
2022-09-23T15:00:10.506Z,51.29
2022-09-23T15:02:59.234Z,51.60
2022-09-23T15:05:48.278Z,50.66
2022-09-23T15:08:24.514Z,50.20
2022-09-23T15:10:58.850Z,50.89
2022-09-23T15:13:34.888Z,51.01
2022-09-23T15:16:08.219Z,51.21
2022-09-23T15:18:43.163Z,50.71
2022-09-23T15:21:20.086Z,50.18
2022-09-23T15:23:54.362Z,50.10
2022-09-23T15:26:51.475Z,49.61
2022-09-23T15:29:24.976Z,51.99
2022-09-23T15:31:57.496Z,52.20
2022-09-23T15:34:30.044Z,52.28
2022-09-23T15:37:02.491Z,51.94
2022-09-23T15:39:36.219Z,51.30
2022-09-23T15:42:11.786Z,51.52
2022-09-23T15:44:44.588Z,51.13
2022-09-23T15:47:22.999Z,50.62
2022-09-23T15:49:55.508Z,50.27
2022-09-23T15:52:28.498Z,50.54
2022-09-23T15:55:00.850Z,50.28
2022-09-23T15:57:33.653Z,49.79
2022-09-23T16:00:06.486Z,49.56
2022-09-23T16:02:46.509Z,49.65
2022-09-23T16:05:24.983Z,47.96
2022-09-23T16:07:57.424Z,49.26
2022-09-23T16:10:30.586Z,49.20
2022-09-23T16:13:05.314Z,48.85
2022-09-23T16:15:40.658Z,49.35
2022-09-23T16:18:14.193Z,49.24
2022-09-23T16:20:52.854Z,48.79
2022-09-23T16:23:50.887Z,47.46
2022-09-23T16:26:36.278Z,48.04
2022-09-23T16:29:13.372Z,48.95
2022-09-23T16:31:50.693Z,48.25
2022-09-23T16:34:25.936Z,48.34
2022-09-23T16:36:58.667Z,48.11
2022-09-23T16:39:31.509Z,47.99
2022-09-23T16:42:04.185Z,48.03
2022-09-23T16:44:36.624Z,47.77
2022-09-23T16:47:10.225Z,47.83
2022-09-23T16:49:43.861Z,47.39
2022-09-23T16:52:18.391Z,47.68
2022-09-23T16:54:50.861Z,47.98
2022-09-23T16:57:23.251Z,47.33
2022-09-23T17:00:13.749Z,47.32
2022-09-23T17:03:04.785Z,47.33
2022-09-23T17:05:37.671Z,47.56
2022-09-23T17:08:12.144Z,47.35
2022-09-23T17:10:46.360Z,47.04
2022-09-23T17:13:18.921Z,47.36
2022-09-23T17:15:51.933Z,46.88
2022-09-23T17:18:24.834Z,46.65
2022-09-23T17:21:03.248Z,46.20
2022-09-23T17:23:37.979Z,46.88
2022-09-23T17:26:16.237Z,46.57
2022-09-23T17:28:48.783Z,46.49
2022-09-23T17:31:23.471Z,46.68
2022-09-23T17:33:56.093Z,46.46
2022-09-23T17:36:29.521Z,46.46
2022-09-23T17:39:02.021Z,46.61
2022-09-23T17:41:34.875Z,46.26
2022-09-23T17:44:07.408Z,46.49
2022-09-23T17:46:40.104Z,46.06
2022-09-23T17:49:12.989Z,46.35
2022-09-23T17:51:45.742Z,46.44
2022-09-23T17:54:18.184Z,46.08
2022-09-23T17:56:50.569Z,46.35
2022-09-23T17:59:22.991Z,46.40
2022-09-23T18:01:59.189Z,46.30
2022-09-23T18:04:31.761Z,46.11
2022-09-23T18:07:04.261Z,46.09
2022-09-23T18:09:36.623Z,45.97
2022-09-23T18:12:09.011Z,46.56
2022-09-23T18:14:41.401Z,45.99
2022-09-23T18:17:13.783Z,46.67
2022-09-23T18:19:50.708Z,46.37
2022-09-23T18:22:23.370Z,46.00
2022-09-23T18:24:55.893Z,45.98
2022-09-23T18:27:28.299Z,46.20
2022-09-23T18:30:01.042Z,45.98
2022-09-23T18:32:34.781Z,45.88
2022-09-23T18:35:07.714Z,45.77
2022-09-23T18:37:40.127Z,45.93
2022-09-23T18:40:14.634Z,46.22
2022-09-23T18:42:47.321Z,46.30
2022-09-23T18:45:20.280Z,45.51
2022-09-23T18:48:10.798Z,46.16
2022-09-23T18:50:45.231Z,45.76
2022-09-23T18:53:18.256Z,46.11
2022-09-23T18:55:50.639Z,45.48
2022-09-23T18:58:23.942Z,46.17
2022-09-23T19:00:56.430Z,45.90
2022-09-23T19:03:28.878Z,45.93
2022-09-23T19:06:09.657Z,45.09
2022-09-23T19:08:42.754Z,45.72
2022-09-23T19:11:15.522Z,45.52
2022-09-23T19:13:48.709Z,45.41
2022-09-23T19:16:21.130Z,45.50
2022-09-23T19:18:54.097Z,46.34
2022-09-23T19:21:27.733Z,45.62
2022-09-23T19:24:06.141Z,45.46
2022-09-23T19:26:42.670Z,45.50
2022-09-23T19:29:23.325Z,45.64
2022-09-23T19:31:55.732Z,45.55
2022-09-23T19:34:30.724Z,45.50
2022-09-23T19:37:06.034Z,45.39
2022-09-23T19:39:39.118Z,45.40
2022-09-23T19:42:11.597Z,45.71
2022-09-23T19:44:44.126Z,45.37
2022-09-23T19:47:19.053Z,45.23
2022-09-23T19:49:51.502Z,45.58
2022-09-23T19:52:24.351Z,45.33
2022-09-23T19:54:56.769Z,45.79
2022-09-23T19:57:31.131Z,45.20
2022-09-23T20:00:04.006Z,45.43
2022-09-23T20:02:45.106Z,45.28
2022-09-23T20:05:20.236Z,45.06
2022-09-23T20:07:54.261Z,45.13
2022-09-23T20:10:27.809Z,45.14
2022-09-23T20:13:01.158Z,45.15
2022-09-23T20:15:33.547Z,45.42
2022-09-23T20:18:06.060Z,45.57
2022-09-23T20:20:39.495Z,45.28
2022-09-23T20:23:11.915Z,45.27
2022-09-23T20:26:02.888Z,45.32
2022-09-23T20:28:35.270Z,45.46
2022-09-23T20:31:07.855Z,44.84
2022-09-23T20:33:44.400Z,44.71
2022-09-23T20:36:17.023Z,44.79
2022-09-23T20:38:49.497Z,45.28
2022-09-23T20:41:22.620Z,44.92
2022-09-23T20:43:56.196Z,44.65
2022-09-23T20:46:30.358Z,44.94
2022-09-23T20:49:03.367Z,44.96
2022-09-23T20:51:37.207Z,45.15
2022-09-23T20:54:09.775Z,45.01
2022-09-23T20:56:42.440Z,45.29
2022-09-23T20:59:19.108Z,45.16
2022-09-23T21:01:56.863Z,44.70
2022-09-23T21:04:30.551Z,44.86
2022-09-23T21:07:02.971Z,45.15
2022-09-23T21:09:35.772Z,45.26
2022-09-23T21:12:08.569Z,45.03
2022-09-23T21:14:40.995Z,45.28
2022-09-23T21:17:13.309Z,45.08
2022-09-23T21:19:45.882Z,45.06
2022-09-23T21:22:19.317Z,44.83
2022-09-23T21:25:26.323Z,45.40
2022-09-23T21:27:44.662Z,45.36
2022-09-23T21:30:17.150Z,45.22
2022-09-23T21:32:49.526Z,44.72
2022-09-23T21:35:23.072Z,45.14
2022-09-23T21:37:55.457Z,44.98
2022-09-23T21:40:46.040Z,45.22
2022-09-23T21:43:18.691Z,45.12
2022-09-23T21:45:51.546Z,45.05
2022-09-23T21:48:24.020Z,45.08
2022-09-23T21:51:01.107Z,44.83
2022-09-23T21:53:36.346Z,45.10
2022-09-23T21:56:08.825Z,45.22
2022-09-23T21:58:42.769Z,45.01
2022-09-23T22:01:20.719Z,44.83
2022-09-23T22:03:55.904Z,45.30
2022-09-23T22:06:30.487Z,45.65
2022-09-23T22:09:05.974Z,45.35
2022-09-23T22:11:58.315Z,45.09
2022-09-23T22:14:32.050Z,45.55
2022-09-23T22:17:06.651Z,45.68
2022-09-23T22:19:45.895Z,44.81
2022-09-23T22:22:20.377Z,45.43
2022-09-23T22:24:53.487Z,45.28
2022-09-23T22:27:28.700Z,45.08
2022-09-23T22:30:19.166Z,44.88
2022-09-23T22:32:55.083Z,45.10
2022-09-23T22:35:27.836Z,45.15
2022-09-23T22:38:02.497Z,44.72
2022-09-23T22:40:36.146Z,45.00
2022-09-23T22:43:09.090Z,45.36
2022-09-23T22:45:41.582Z,45.08
2022-09-23T22:48:15.094Z,44.76
2022-09-23T22:50:47.865Z,45.44
2022-09-23T22:53:20.659Z,45.14
2022-09-23T22:56:02.725Z,44.48
2022-09-23T22:58:35.179Z,45.08
2022-09-23T23:01:07.622Z,44.42
2022-09-23T23:03:41.871Z,45.08
2022-09-23T23:06:14.656Z,45.55
2022-09-23T23:08:47.212Z,45.42
2022-09-23T23:11:19.622Z,45.47
2022-09-23T23:13:52.086Z,45.56
2022-09-23T23:16:26.835Z,45.65
2022-09-23T23:18:59.293Z,45.61
2022-09-23T23:21:32.937Z,45.66
2022-09-23T23:24:07.270Z,45.75
2022-09-23T23:26:39.669Z,46.12
2022-09-23T23:29:14.363Z,45.51
2022-09-23T23:31:47.184Z,45.09
2022-09-23T23:34:22.328Z,44.75
2022-09-23T23:36:58.487Z,45.02
2022-09-23T23:39:31.274Z,44.76
2022-09-23T23:42:05.248Z,44.30
2022-09-23T23:44:38.443Z,44.80
2022-09-23T23:47:10.801Z,55.74
2022-09-23T23:49:43.256Z,56.57
2022-09-23T23:52:16.066Z,63.47
2022-09-23T23:54:48.490Z,65.34
2022-09-23T23:57:21.115Z,66.55
2022-09-23T23:59:53.531Z,67.40
